ANA98 RJBB-RJTT
Flight info
| Callsign | ANA98 |
|---|---|
| Flight time | 0h 50m |
| Altitude | 33000 |
| Route | UPMIN DOPDA KEC Y43 MENUR Y21 AKSEL |
| Aircraft | B77W/H-SDE1E2E3FGHIJ2J3J4J5M1RWXY/LB1D1 |
Departure
| Time | 2026-05-06 19:54 |
|---|---|
| Airport | Kansai International Airport (RJBB) |
Arrival
| Time | 2026-05-06 20:44 |
|---|---|
| Airport | Tokyo Haneda International Airport (RJTT) |
| Time | Latitude | Longitude | Altitude | Speed | Heading |
|---|---|---|---|---|---|
| 2026-05-06 19:20 | 34.43170 | 135.24236 | 28 ft | 0 kts | 322° |
| 2026-05-06 19:40 | 34.43153 | 135.24253 | 27 ft | 4 kts | 319° |
| 2026-05-06 19:40 | 34.43134 | 135.24271 | 28 ft | 4 kts | 318° |
| 2026-05-06 19:40 | 34.43119 | 135.24292 | 27 ft | 4 kts | 290° |
| 2026-05-06 19:41 | 34.43116 | 135.24313 | 27 ft | 4 kts | 247° |
| 2026-05-06 19:41 | 34.43130 | 135.24337 | 28 ft | 4 kts | 227° |
| 2026-05-06 19:41 | 34.43144 | 135.24355 | 26 ft | 1 kts | 231° |
| 2026-05-06 19:41 | 34.43146 | 135.24359 | 25 ft | 0 kts | 231° |
| 2026-05-06 19:43 | 34.43144 | 135.24356 | 26 ft | 1 kts | 231° |
| 2026-05-06 19:44 | 34.43136 | 135.24345 | 26 ft | 2 kts | 231° |
| 2026-05-06 19:44 | 34.43123 | 135.24324 | 28 ft | 4 kts | 231° |
| 2026-05-06 19:44 | 34.43091 | 135.24278 | 20 ft | 11 kts | 231° |
| 2026-05-06 19:44 | 34.43035 | 135.24216 | 25 ft | 10 kts | 192° |
| 2026-05-06 19:45 | 34.42971 | 135.24217 | 25 ft | 11 kts | 195° |
| 2026-05-06 19:45 | 34.42901 | 135.24141 | 27 ft | 16 kts | 229° |
| 2026-05-06 19:45 | 34.42829 | 135.24033 | 25 ft | 17 kts | 231° |
| 2026-05-06 19:45 | 34.42746 | 135.23909 | 25 ft | 20 kts | 231° |
| 2026-05-06 19:46 | 34.42660 | 135.23780 | 28 ft | 20 kts | 231° |
| 2026-05-06 19:46 | 34.42583 | 135.23667 | 26 ft | 10 kts | 230° |
| 2026-05-06 19:46 | 34.42581 | 135.23594 | 27 ft | 10 kts | 305° |
| 2026-05-06 19:46 | 34.42634 | 135.23536 | 27 ft | 12 kts | 321° |
| 2026-05-06 19:47 | 34.42709 | 135.23463 | 26 ft | 16 kts | 321° |
| 2026-05-06 19:47 | 34.42806 | 135.23368 | 27 ft | 20 kts | 321° |
| 2026-05-06 19:47 | 34.42923 | 135.23255 | 28 ft | 22 kts | 321° |
| 2026-05-06 19:47 | 34.43044 | 135.23136 | 27 ft | 22 kts | 321° |
| 2026-05-06 19:48 | 34.43166 | 135.23017 | 33 ft | 23 kts | 321° |
| 2026-05-06 19:48 | 34.43288 | 135.22898 | 34 ft | 23 kts | 321° |
| 2026-05-06 19:48 | 34.43411 | 135.22778 | 33 ft | 23 kts | 321° |
| 2026-05-06 19:48 | 34.43534 | 135.22658 | 33 ft | 23 kts | 321° |
| 2026-05-06 19:49 | 34.43657 | 135.22538 | 34 ft | 23 kts | 321° |
| 2026-05-06 19:49 | 34.43729 | 135.22465 | 34 ft | 8 kts | 323° |
| 2026-05-06 19:49 | 34.43777 | 135.22420 | 34 ft | 9 kts | 318° |
| 2026-05-06 19:49 | 34.43786 | 135.22355 | 34 ft | 8 kts | 245° |
| 2026-05-06 19:50 | 34.43750 | 135.22295 | 34 ft | 11 kts | 232° |
| 2026-05-06 19:50 | 34.43681 | 135.22191 | 34 ft | 20 kts | 231° |
| 2026-05-06 19:50 | 34.43578 | 135.22039 | 34 ft | 27 kts | 231° |
| 2026-05-06 19:50 | 34.43458 | 135.21861 | 34 ft | 27 kts | 231° |
| 2026-05-06 19:51 | 34.43338 | 135.21682 | 34 ft | 27 kts | 231° |
| 2026-05-06 19:51 | 34.43219 | 135.21503 | 34 ft | 27 kts | 231° |
| 2026-05-06 19:51 | 34.43098 | 135.21325 | 34 ft | 27 kts | 230° |
| 2026-05-06 19:51 | 34.42980 | 135.21149 | 34 ft | 27 kts | 231° |
| 2026-05-06 19:52 | 34.42864 | 135.20975 | 34 ft | 26 kts | 231° |
| 2026-05-06 19:52 | 34.42775 | 135.20843 | 34 ft | 12 kts | 230° |
| 2026-05-06 19:52 | 34.42756 | 135.20770 | 34 ft | 9 kts | 280° |
| 2026-05-06 19:52 | 34.42802 | 135.20701 | 30 ft | 13 kts | 317° |
| 2026-05-06 19:53 | 34.42865 | 135.20662 | 30 ft | 9 kts | 3° |
| 2026-05-06 19:53 | 34.42907 | 135.20696 | 30 ft | 8 kts | 48° |
| 2026-05-06 19:53 | 34.43061 | 135.20923 | 33 ft | 76 kts | 51° |
| 2026-05-06 19:53 | 34.43565 | 135.21673 | 37 ft | 154 kts | 51° |
| 2026-05-06 19:54 | 34.44308 | 135.22799 | 517 ft | 173 kts | 52° |
| 2026-05-06 19:54 | 34.45063 | 135.23946 | 1392 ft | 177 kts | 50° |
| 2026-05-06 19:54 | 34.46078 | 135.24908 | 1799 ft | 201 kts | 17° |
| 2026-05-06 19:54 | 34.47506 | 135.24822 | 2191 ft | 223 kts | 335° |
| 2026-05-06 19:55 | 34.48693 | 135.23514 | 2612 ft | 244 kts | 296° |
| 2026-05-06 19:55 | 34.49005 | 135.21500 | 3429 ft | 251 kts | 261° |
| 2026-05-06 19:55 | 34.48338 | 135.19575 | 4452 ft | 240 kts | 237° |
| 2026-05-06 19:55 | 34.47414 | 135.17849 | 5205 ft | 257 kts | 237° |
| 2026-05-06 19:56 | 34.46431 | 135.16018 | 6068 ft | 261 kts | 238° |
| 2026-05-06 19:56 | 34.45458 | 135.14150 | 7031 ft | 263 kts | 238° |
| 2026-05-06 19:56 | 34.44492 | 135.12245 | 7911 ft | 267 kts | 239° |
| 2026-05-06 19:56 | 34.43522 | 135.10301 | 8762 ft | 272 kts | 239° |
| 2026-05-06 19:57 | 34.42537 | 135.08324 | 9646 ft | 276 kts | 239° |
| 2026-05-06 19:57 | 34.41539 | 135.06317 | 10418 ft | 283 kts | 239° |
| 2026-05-06 19:57 | 34.40421 | 135.04241 | 10736 ft | 308 kts | 233° |
| 2026-05-06 19:57 | 34.38971 | 135.02173 | 10943 ft | 334 kts | 226° |
| 2026-05-06 19:58 | 34.36985 | 135.00543 | 11201 ft | 360 kts | 202° |
| 2026-05-06 19:58 | 34.34494 | 134.99915 | 11970 ft | 373 kts | 184° |
| 2026-05-06 19:58 | 34.31878 | 135.00086 | 12951 ft | 380 kts | 177° |
| 2026-05-06 19:58 | 34.29230 | 135.00381 | 13961 ft | 384 kts | 177° |
| 2026-05-06 19:59 | 34.26541 | 135.00651 | 14797 ft | 391 kts | 178° |
| 2026-05-06 19:59 | 34.23803 | 135.00908 | 15590 ft | 399 kts | 176° |
| 2026-05-06 19:59 | 34.21041 | 135.01454 | 16320 ft | 408 kts | 169° |
| 2026-05-06 19:59 | 34.18259 | 135.02292 | 17109 ft | 416 kts | 167° |
| 2026-05-06 20:00 | 34.16402 | 135.02904 | 17646 ft | 420 kts | 166° |
| 2026-05-06 20:00 | 34.13560 | 135.03840 | 18426 ft | 426 kts | 166° |
| 2026-05-06 20:00 | 34.10685 | 135.04755 | 19099 ft | 431 kts | 167° |
| 2026-05-06 20:00 | 34.06800 | 135.05938 | 20049 ft | 437 kts | 167° |
| 2026-05-06 20:01 | 34.04807 | 135.06531 | 20532 ft | 440 kts | 167° |
| 2026-05-06 20:01 | 34.00839 | 135.07700 | 21448 ft | 446 kts | 167° |
| 2026-05-06 20:01 | 33.98793 | 135.08302 | 21906 ft | 449 kts | 167° |
| 2026-05-06 20:01 | 33.95742 | 135.09202 | 22584 ft | 452 kts | 167° |
| 2026-05-06 20:02 | 33.92757 | 135.10476 | 23082 ft | 462 kts | 155° |
| 2026-05-06 20:02 | 33.90024 | 135.12545 | 23673 ft | 469 kts | 143° |
| 2026-05-06 20:02 | 33.87666 | 135.15270 | 24230 ft | 470 kts | 131° |
| 2026-05-06 20:02 | 33.85614 | 135.18355 | 24757 ft | 474 kts | 129° |
| 2026-05-06 20:03 | 33.83584 | 135.21496 | 25278 ft | 478 kts | 128° |
| 2026-05-06 20:03 | 33.81534 | 135.24670 | 25816 ft | 482 kts | 129° |
| 2026-05-06 20:03 | 33.79463 | 135.27845 | 26352 ft | 485 kts | 129° |
| 2026-05-06 20:03 | 33.77362 | 135.31030 | 26885 ft | 488 kts | 129° |
| 2026-05-06 20:04 | 33.75233 | 135.34229 | 27369 ft | 492 kts | 130° |
| 2026-05-06 20:04 | 33.73112 | 135.37398 | 27820 ft | 496 kts | 130° |
| 2026-05-06 20:04 | 33.70940 | 135.40633 | 28274 ft | 500 kts | 130° |
| 2026-05-06 20:04 | 33.68746 | 135.43896 | 28667 ft | 504 kts | 130° |
| 2026-05-06 20:05 | 33.66534 | 135.47186 | 29075 ft | 508 kts | 131° |
| 2026-05-06 20:05 | 33.64312 | 135.50491 | 29442 ft | 511 kts | 131° |
| 2026-05-06 20:05 | 33.62071 | 135.53822 | 29807 ft | 515 kts | 131° |
| 2026-05-06 20:05 | 33.59811 | 135.57178 | 30160 ft | 518 kts | 132° |
| 2026-05-06 20:06 | 33.57547 | 135.60538 | 30537 ft | 519 kts | 132° |
| 2026-05-06 20:06 | 33.55279 | 135.63902 | 30951 ft | 519 kts | 133° |
| 2026-05-06 20:06 | 33.53014 | 135.67260 | 31376 ft | 518 kts | 133° |
| 2026-05-06 20:06 | 33.50745 | 135.70618 | 31799 ft | 518 kts | 133° |
| 2026-05-06 20:07 | 33.48497 | 135.73980 | 32203 ft | 516 kts | 130° |
| 2026-05-06 20:07 | 33.46731 | 135.77774 | 32459 ft | 529 kts | 113° |
| 2026-05-06 20:07 | 33.45887 | 135.82091 | 32842 ft | 536 kts | 98° |
| 2026-05-06 20:07 | 33.45939 | 135.86575 | 32995 ft | 544 kts | 81° |
| 2026-05-06 20:08 | 33.46786 | 135.90987 | 33113 ft | 543 kts | 76° |
| 2026-05-06 20:08 | 33.47735 | 135.95359 | 33169 ft | 543 kts | 76° |
| 2026-05-06 20:08 | 33.49609 | 136.04114 | 33171 ft | 541 kts | 77° |
| 2026-05-06 20:09 | 33.51359 | 136.12873 | 33175 ft | 541 kts | 77° |
| 2026-05-06 20:09 | 33.53048 | 136.21654 | 33175 ft | 541 kts | 78° |
| 2026-05-06 20:10 | 33.54734 | 136.30463 | 33173 ft | 542 kts | 78° |
| 2026-05-06 20:10 | 33.56425 | 136.39282 | 33175 ft | 544 kts | 78° |
| 2026-05-06 20:11 | 33.58118 | 136.48128 | 33174 ft | 545 kts | 78° |
| 2026-05-06 20:11 | 33.59807 | 136.56998 | 33175 ft | 546 kts | 78° |
| 2026-05-06 20:12 | 33.61491 | 136.65880 | 33172 ft | 547 kts | 78° |
| 2026-05-06 20:12 | 33.63172 | 136.74779 | 33168 ft | 547 kts | 78° |
| 2026-05-06 20:13 | 33.64860 | 136.83688 | 33173 ft | 548 kts | 78° |
| 2026-05-06 20:13 | 33.66557 | 136.92608 | 33170 ft | 548 kts | 78° |
| 2026-05-06 20:14 | 33.68245 | 137.01531 | 33169 ft | 548 kts | 78° |
| 2026-05-06 20:14 | 33.69926 | 137.10466 | 33172 ft | 549 kts | 78° |
| 2026-05-06 20:15 | 33.71590 | 137.19415 | 33169 ft | 549 kts | 78° |
| 2026-05-06 20:15 | 33.73231 | 137.28366 | 33165 ft | 549 kts | 78° |
| 2026-05-06 20:16 | 33.74860 | 137.37279 | 33166 ft | 550 kts | 78° |
| 2026-05-06 20:16 | 33.76496 | 137.46255 | 33160 ft | 550 kts | 78° |
| 2026-05-06 20:17 | 33.78127 | 137.55237 | 33161 ft | 550 kts | 78° |
| 2026-05-06 20:17 | 33.79752 | 137.64226 | 33160 ft | 551 kts | 79° |
| 2026-05-06 20:18 | 33.81376 | 137.73226 | 33160 ft | 551 kts | 79° |
| 2026-05-06 20:18 | 33.82996 | 137.82225 | 33158 ft | 551 kts | 79° |
| 2026-05-06 20:19 | 33.84610 | 137.91235 | 33157 ft | 551 kts | 79° |
| 2026-05-06 20:19 | 33.86208 | 138.00202 | 33162 ft | 552 kts | 79° |
| 2026-05-06 20:20 | 33.87812 | 138.09241 | 33160 ft | 552 kts | 79° |
| 2026-05-06 20:20 | 33.89411 | 138.18290 | 33157 ft | 553 kts | 79° |
| 2026-05-06 20:21 | 33.91346 | 138.27249 | 33158 ft | 554 kts | 71° |
| 2026-05-06 20:21 | 33.94429 | 138.35722 | 33160 ft | 553 kts | 60° |
| 2026-05-06 20:22 | 33.98139 | 138.43864 | 33166 ft | 554 kts | 60° |
| 2026-05-06 20:22 | 34.01861 | 138.52043 | 33163 ft | 555 kts | 60° |
| 2026-05-06 20:23 | 34.05513 | 138.60240 | 33157 ft | 555 kts | 61° |
| 2026-05-06 20:23 | 34.09140 | 138.68452 | 33160 ft | 555 kts | 61° |
| 2026-05-06 20:24 | 34.12770 | 138.76678 | 33161 ft | 555 kts | 61° |
| 2026-05-06 20:24 | 34.16410 | 138.84934 | 33166 ft | 559 kts | 61° |
| 2026-05-06 20:25 | 34.20036 | 138.93180 | 33100 ft | 561 kts | 61° |
| 2026-05-06 20:25 | 34.23669 | 139.01525 | 33048 ft | 560 kts | 61° |
| 2026-05-06 20:26 | 34.27259 | 139.09853 | 33046 ft | 558 kts | 61° |
| 2026-05-06 20:26 | 34.30534 | 139.18343 | 33059 ft | 556 kts | 66° |
| 2026-05-06 20:27 | 34.33470 | 139.26978 | 33036 ft | 556 kts | 67° |
| 2026-05-06 20:27 | 34.34908 | 139.31236 | 32504 ft | 534 kts | 67° |
| 2026-05-06 20:27 | 34.36309 | 139.35357 | 30873 ft | 528 kts | 67° |
| 2026-05-06 20:28 | 34.37722 | 139.39476 | 28913 ft | 530 kts | 67° |
| 2026-05-06 20:28 | 34.39132 | 139.43569 | 27214 ft | 522 kts | 68° |
| 2026-05-06 20:28 | 34.40515 | 139.47584 | 25620 ft | 513 kts | 68° |
| 2026-05-06 20:28 | 34.41877 | 139.51544 | 24141 ft | 504 kts | 68° |
| 2026-05-06 20:29 | 34.43206 | 139.55420 | 22577 ft | 494 kts | 68° |
| 2026-05-06 20:29 | 34.44505 | 139.59213 | 21101 ft | 482 kts | 68° |
| 2026-05-06 20:29 | 34.45770 | 139.62914 | 19744 ft | 469 kts | 68° |
| 2026-05-06 20:29 | 34.47013 | 139.66528 | 18946 ft | 459 kts | 66° |
| 2026-05-06 20:30 | 34.48570 | 139.69877 | 18394 ft | 456 kts | 53° |
| 2026-05-06 20:30 | 34.53078 | 139.75117 | 17121 ft | 443 kts | 30° |
| 2026-05-06 20:30 | 34.55716 | 139.77006 | 16530 ft | 438 kts | 26° |
| 2026-05-06 20:31 | 34.58345 | 139.78838 | 15949 ft | 434 kts | 26° |
| 2026-05-06 20:31 | 34.60943 | 139.80683 | 15370 ft | 431 kts | 27° |
| 2026-05-06 20:31 | 34.63508 | 139.82545 | 14810 ft | 428 kts | 27° |
| 2026-05-06 20:31 | 34.66048 | 139.84407 | 14228 ft | 423 kts | 27° |
| 2026-05-06 20:32 | 34.68626 | 139.85885 | 13609 ft | 411 kts | 12° |
| 2026-05-06 20:32 | 34.71368 | 139.86372 | 13030 ft | 392 kts | 0° |
| 2026-05-06 20:32 | 34.74084 | 139.86661 | 12448 ft | 390 kts | 1° |
| 2026-05-06 20:32 | 34.76772 | 139.87001 | 11894 ft | 387 kts | 2° |
| 2026-05-06 20:33 | 34.79442 | 139.87368 | 11350 ft | 385 kts | 3° |
| 2026-05-06 20:33 | 34.82085 | 139.87745 | 10977 ft | 378 kts | 3° |
| 2026-05-06 20:33 | 34.84650 | 139.88117 | 10812 ft | 365 kts | 3° |
| 2026-05-06 20:33 | 34.87128 | 139.88476 | 10655 ft | 353 kts | 3° |
| 2026-05-06 20:34 | 34.89531 | 139.88822 | 10498 ft | 342 kts | 2° |
| 2026-05-06 20:34 | 34.91857 | 139.89157 | 10360 ft | 332 kts | 2° |
| 2026-05-06 20:34 | 34.94112 | 139.89464 | 10212 ft | 317 kts | 359° |
| 2026-05-06 20:34 | 34.96197 | 139.89192 | 10078 ft | 292 kts | 340° |
| 2026-05-06 20:35 | 34.98119 | 139.88551 | 9919 ft | 284 kts | 340° |
| 2026-05-06 20:35 | 35.00024 | 139.87918 | 9579 ft | 283 kts | 340° |
| 2026-05-06 20:35 | 35.01921 | 139.87296 | 9259 ft | 282 kts | 340° |
| 2026-05-06 20:35 | 35.03812 | 139.86683 | 8948 ft | 281 kts | 340° |
| 2026-05-06 20:36 | 35.05698 | 139.86077 | 8628 ft | 280 kts | 341° |
| 2026-05-06 20:36 | 35.07557 | 139.85483 | 8324 ft | 279 kts | 341° |
| 2026-05-06 20:36 | 35.09463 | 139.84876 | 7997 ft | 279 kts | 341° |
| 2026-05-06 20:36 | 35.11339 | 139.84280 | 7678 ft | 279 kts | 341° |
| 2026-05-06 20:37 | 35.13194 | 139.83692 | 7373 ft | 279 kts | 342° |
| 2026-05-06 20:37 | 35.15071 | 139.83097 | 7052 ft | 279 kts | 342° |
| 2026-05-06 20:37 | 35.16949 | 139.82501 | 6737 ft | 279 kts | 342° |
| 2026-05-06 20:37 | 35.18836 | 139.81903 | 6415 ft | 280 kts | 342° |
| 2026-05-06 20:38 | 35.20720 | 139.81306 | 6075 ft | 280 kts | 342° |
| 2026-05-06 20:38 | 35.22609 | 139.80707 | 5748 ft | 280 kts | 342° |
| 2026-05-06 20:38 | 35.24492 | 139.80109 | 5423 ft | 279 kts | 342° |
| 2026-05-06 20:38 | 35.26367 | 139.79514 | 5113 ft | 278 kts | 342° |
| 2026-05-06 20:39 | 35.28237 | 139.78920 | 4789 ft | 277 kts | 342° |
| 2026-05-06 20:39 | 35.30098 | 139.78347 | 4453 ft | 273 kts | 347° |
| 2026-05-06 20:39 | 35.31984 | 139.78468 | 4128 ft | 275 kts | 17° |
| 2026-05-06 20:39 | 35.33625 | 139.79598 | 3839 ft | 269 kts | 37° |
| 2026-05-06 20:40 | 35.35120 | 139.80977 | 3552 ft | 269 kts | 36° |
| 2026-05-06 20:40 | 35.36615 | 139.82341 | 3356 ft | 265 kts | 36° |
| 2026-05-06 20:40 | 35.38071 | 139.83663 | 3241 ft | 256 kts | 36° |
| 2026-05-06 20:40 | 35.39473 | 139.84933 | 3127 ft | 245 kts | 36° |
| 2026-05-06 20:41 | 35.40826 | 139.86154 | 2878 ft | 239 kts | 34° |
| 2026-05-06 20:41 | 35.42312 | 139.86891 | 2595 ft | 229 kts | 4° |
| 2026-05-06 20:41 | 35.43879 | 139.86915 | 2329 ft | 222 kts | 358° |
| 2026-05-06 20:41 | 35.45352 | 139.86686 | 1995 ft | 206 kts | 335° |
| 2026-05-06 20:42 | 35.46535 | 139.85859 | 1783 ft | 187 kts | 328° |
| 2026-05-06 20:42 | 35.47612 | 139.85080 | 1538 ft | 174 kts | 328° |
| 2026-05-06 20:42 | 35.48658 | 139.84317 | 1317 ft | 174 kts | 328° |
| 2026-05-06 20:42 | 35.49689 | 139.83574 | 1081 ft | 171 kts | 328° |
| 2026-05-06 20:43 | 35.50707 | 139.82844 | 842 ft | 167 kts | 330° |
| 2026-05-06 20:43 | 35.51698 | 139.82137 | 637 ft | 161 kts | 329° |
| 2026-05-06 20:43 | 35.52625 | 139.81478 | 386 ft | 149 kts | 329° |
| 2026-05-06 20:43 | 35.53512 | 139.80838 | 236 ft | 151 kts | 328° |
| 2026-05-06 20:44 | 35.54441 | 139.80180 | 47 ft | 154 kts | 329° |
| 2026-05-06 20:44 | 35.55293 | 139.79576 | 33 ft | 126 kts | 330° |
| 2026-05-06 20:44 | 35.55901 | 139.79143 | 32 ft | 58 kts | 330° |
| 2026-05-06 20:44 | 35.56104 | 139.78931 | 30 ft | 39 kts | 306° |
| 2026-05-06 20:45 | 35.56143 | 139.78809 | 27 ft | 11 kts | 256° |
| 2026-05-06 20:45 | 35.56091 | 139.78765 | 29 ft | 9 kts | 178° |
| 2026-05-06 20:45 | 35.56033 | 139.78795 | 28 ft | 9 kts | 151° |
| 2026-05-06 20:45 | 35.55974 | 139.78837 | 29 ft | 11 kts | 150° |
| 2026-05-06 20:46 | 35.55901 | 139.78888 | 29 ft | 15 kts | 150° |
| 2026-05-06 20:46 | 35.55780 | 139.78974 | 30 ft | 22 kts | 150° |
| 2026-05-06 20:46 | 35.55650 | 139.79066 | 31 ft | 22 kts | 149° |
| 2026-05-06 20:46 | 35.55531 | 139.79150 | 31 ft | 16 kts | 150° |
| 2026-05-06 20:47 | 35.55433 | 139.79220 | 31 ft | 16 kts | 149° |
| 2026-05-06 20:47 | 35.55358 | 139.79273 | 32 ft | 9 kts | 151° |
| 2026-05-06 20:47 | 35.55303 | 139.79255 | 31 ft | 10 kts | 230° |
| 2026-05-06 20:47 | 35.55267 | 139.79182 | 32 ft | 10 kts | 240° |
| 2026-05-06 20:48 | 35.55229 | 139.79102 | 32 ft | 10 kts | 240° |
| 2026-05-06 20:48 | 35.55196 | 139.79032 | 31 ft | 10 kts | 240° |
| 2026-05-06 20:48 | 35.55174 | 139.78986 | 31 ft | 4 kts | 239° |
| 2026-05-06 20:48 | 35.55165 | 139.78966 | 32 ft | 2 kts | 239° |
| 2026-05-06 20:49 | 35.55161 | 139.78958 | 32 ft | 1 kts | 239° |
| 2026-05-06 20:49 | 35.55160 | 139.78957 | 32 ft | 0 kts | 239° |